Details From USSS - Koltsovo
To USCC - Balandino
Flight Number -
Tags Generated
Created
Modified
Stats Distance 89 nm / 165 km
Max Altitude 0 ft / 0 m
Waypoints 2
Social Downloads 8
Likes 0
Share VATSIM

Download

Looking for another format? Having issues loading an existing format? Contact us
Advertisement - Login to hide

Notes

Generated

Route

USSS USCC

ID Type Via Altitude Latitude Longitude Leg Dist Tot Dist Heading (true) Name
O USSS APT - 0 ft / 0 m 56.74481˚ 60.78140˚ - 0 nm - -
O USCC APT - 0 ft / 0 m 55.30921˚ 61.47889˚ 89 nm 89 nm 165° / 165° -

Altitude Profile

Advertisement - Login to hide

USSS

Details ICAO USSS (SVX)
Name KOLTSOVO
Region Russia
Timezone Asia/Yekaterinburg (UTC+5.0)
Stats Elevation 764 ft / 233 m (AMSL)
Location 56.743108° 60.802727°
Runways 2
Magnetic Variation 14.864° E

METAR

USSS 161130Z VRB01MPS 7000 NSC M12/M16 Q1037 R26R/290040 NOSIG RMK QFE757/1009

Decode

TAF

TAF USSS 160752Z 1609/1709 15003MPS 9999 SCT015 BECMG 1611/1613 5000 BR BECMG 1706/1708 9999 NSW

Decode

Departure Runways

ID Width Length Bearing (true) Bearing (mag) Surface Threshold Offset Overrun Length
08L 148 ft / 45 m 8,172 ft / 2,491 m 90.13° 75.27° Asphalt 0 ft / 0 m 230 ft / 70 m
08R 174 ft / 53 m 9,861 ft / 3,006 m 94.09° 79.23° Concrete 246 ft / 75 m 165 ft / 50 m
26L 174 ft / 53 m 9,861 ft / 3,006 m 274.14° 259.28° Concrete 1,066 ft / 325 m 165 ft / 50 m
26R 148 ft / 45 m 8,172 ft / 2,491 m 270.17° 255.31° Asphalt 0 ft / 0 m 220 ft / 67 m

USCC

Details ICAO USCC (CEK)
Name BALANDINO
Region Russia
Timezone Asia/Yekaterinburg (UTC+5.0)
Stats Elevation 769 ft / 234 m (AMSL)
Location 55.305843° 61.503320°
Runways 1
Magnetic Variation 13.794° E

METAR

USCC 161130Z 14001MPS 4200 FU NSC M14/M17 Q1038 R09/000060 TEMPO 1100 BR FU RMK QFE758

Decode

TAF

TAF USCC 160800Z 1609/1709 17003MPS 3100 BR SCT020 TEMPO 1609/1706 11001MPS 2100 BR FU SCT011

Decode

Destination Runways

ID Width Length Bearing (true) Bearing (mag) Surface Threshold Offset Overrun Length
09 197 ft / 60 m 10,443 ft / 3,183 m 103.59° 89.80° Concrete 0 ft / 0 m 230 ft / 70 m
27 197 ft / 60 m 10,443 ft / 3,183 m 283.63° 269.84° Concrete 0 ft / 0 m 230 ft / 70 m

Approach Navaids

Runway Type Ident Frequency Range Bearing (true) Bearing (mag) Slope Elevation
09 Localiser ILB 109.90 MHz 18 nm / 33 km 105.25° 91.46° - 769 ft / 234 m (AMSL)
09 Glidescope ILB 109.90 MHz 10 nm / 19 km 103.61° 89.82° 2.80° 769 ft / 234 m (AMSL)
27 Localiser IKS 108.70 MHz 18 nm / 33 km 282.19° 268.39° - 769 ft / 234 m (AMSL)
27 Glidescope IKS 108.70 MHz 10 nm / 19 km 283.61° 269.82° 2.80° 769 ft / 234 m (AMSL)

Popular Alternatives